Currently 45°F in Simi Valley, California, USA
45°F
49°F / 45°F
calm
0.00"
Monday, March 25, 2019 7:29 AM PDT

Simi Valley, California Weather Summary
Last 36 Hours

Temperature Winds Hourly Humidity Dewpoint
Time Report Norm Report Norm Max Gusts Precip. Rpt. Norm Rpt. Norm Pressure
1Mon 07:29 AM  45.3°F  51°F  calm  1 mph  none  0.00"  89%  77%  42°F  43°F  30.11"
3Mon 07:17 AM  45.3°F  50°F  calm  2 mph  none  ----  89%  77%  42°F  43°F  30.10"
Mon 07:00 AM  45.6°F  50°F  calm  1 mph  none  0.00"  89%  77%  42°F  43°F  30.09"
Mon 06:00 AM  45.5°F  50°F  calm  2 mph  none  0.00"  88%  77%  42°F  43°F  30.09"
Mon 05:00 AM  46.0°F  51°F  calm  2 mph  none  0.00"  87%  76%  42°F  43°F  30.10"
Mon 04:00 AM  46.4°F  51°F  calm  2 mph  5 mph  0.00"  86%  75%  42°F  44°F  30.11"
Mon 03:00 AM  46.9°F  52°F  3 mph E  2 mph  5 mph  0.00"  85%  75%  43°F  44°F  30.12"
Mon 02:00 AM  47.5°F  52°F  1 mph E  2 mph  5 mph  0.00"  84%  74%  43°F  44°F  30.14"
Mon 01:00 AM  48.3°F  53°F  calm  1 mph  5 mph  0.00"  83%  73%  43°F  44°F  30.15"
2Mon 12:01 AM  49.3°F  54°F  calm  1 mph  4 mph  ----  82%  72%  44°F  45°F  30.15"
Mon 12:00 AM  49.3°F  54°F  calm  1 mph  6 mph  0.00"  82%  72%  44°F  45°F  30.15"
Sun 11:00 PM  50.3°F  54°F  4 mph W  2 mph  6 mph  0.00"  81%  72%  44°F  45°F  30.14"
Sun 10:00 PM  52.1°F  55°F  3 mph NW  2 mph  5 mph  0.00"  78%  71%  45°F  46°F  30.14"
Sun 09:00 PM  55.6°F  57°F  calm  2 mph  7 mph  0.00"  73%  70%  47°F  47°F  30.13"
Sun 08:00 PM  57.9°F  59°F  calm  2 mph  10 mph  0.00"  71%  67%  48°F  48°F  30.12"
Sun 07:00 PM  62.5°F  61°F  4 mph W  3 mph  11 mph  0.00"  64%  62%  50°F  48°F  30.09"
Sun 06:00 PM  65.2°F  64°F  6 mph W  5 mph  14 mph  0.00"  61%  56%  51°F  48°F  30.10"
Sun 05:00 PM  66.6°F  66°F  9 mph NW  5 mph  14 mph  0.00"  60%  52%  52°F  48°F  30.10"
Sun 04:00 PM  67.9°F  67°F  10 mph NW  6 mph  14 mph  0.00"  55%  51%  50°F  48°F  30.11"
Sun 03:00 PM  68.6°F  68°F  6 mph SW  5 mph  18 mph  0.00"  50%  50%  48°F  48°F  30.12"
Sun 02:00 PM  69.4°F  69°F  6 mph NW  5 mph  15 mph  0.00"  42%  48%  45°F  47°F  30.13"
Sun 01:00 PM  69.5°F  68°F  6 mph W  5 mph  9 mph  0.00"  39%  48%  43°F  47°F  30.14"
Sun 12:00 PM  68.3°F  66°F  2 mph S  4 mph  8 mph  0.00"  48%  51%  47°F  47°F  30.16"
Sun 11:00 AM  63.8°F  63°F  calm  3 mph  7 mph  0.00"  52%  57%  45°F  47°F  30.17"
Sun 10:00 AM  59.0°F  59°F  1 mph SW  3 mph  8 mph  0.00"  61%  65%  45°F  47°F  30.17"
Sun 09:00 AM  54.6°F  55°F  1 mph NW  2 mph  10 mph  0.00"  70%  72%  45°F  46°F  30.17"
Sun 08:00 AM  46.8°F  51°F  calm  2 mph  1 mph  0.00"  86%  76%  43°F  44°F  30.16"
Sun 07:00 AM  45.6°F  50°F  calm  2 mph  5 mph  0.00"  87%  77%  42°F  43°F  30.15"
Sun 06:00 AM  44.6°F  50°F  calm  2 mph  7 mph  0.00"  88%  76%  41°F  43°F  30.12"
Sun 05:00 AM  44.7°F  51°F  calm  2 mph  3 mph  0.00"  89%  76%  41°F  43°F  30.11"
Sun 04:00 AM  44.8°F  51°F  calm  2 mph  3 mph  0.00"  89%  75%  42°F  43°F  30.11"
Sun 03:00 AM  46.2°F  52°F  calm  2 mph  4 mph  0.00"  89%  75%  43°F  43°F  30.13"
Sun 02:00 AM  47.5°F  52°F  calm  2 mph  6 mph  0.00"  88%  74%  44°F  44°F  30.13"
Sun 01:00 AM  48.1°F  53°F  4 mph SW  1 mph  7 mph  0.00"  89%  73%  45°F  44°F  30.12"
Sun 12:00 AM  49.6°F  53°F  calm  1 mph  7 mph  0.00"  88%  72%  46°F  44°F  30.10"
Sat 11:00 PM  51.1°F  54°F  calm  2 mph  5 mph  0.00"  87%  72%  47°F  45°F  30.11"
Sat 10:00 PM  53.4°F  55°F  calm  1 mph  2 mph  0.00"  86%  71%  49°F  46°F  30.11"
Sat 09:00 PM  55.5°F  57°F  calm  2 mph  5 mph  0.00"  86%  70%  51°F  47°F  30.11"
Sat 08:00 PM  55.9°F  59°F  1 mph W  2 mph  11 mph  0.00"  87%  67%  52°F  47°F  30.11"

  1. Current weather data. No green row appears if the current weather data is also the high or low for the current day.
  2. High temperature for the current day.
  3. Low temperature for the current day.

The Simi Valley, California weather pages are a service of WeatherCurrents.
Copyright ©Mon Mar 25 07:30:13 PDT 2019  WeatherCurrents. All rights reserved. - Submit questions and comments - Privacy Policy

This page automatically refreshes every 10 minutes.